Nadi, Fiji

12:11 AM +12 on Juni 26, 2017 (GMT +1200)
Queens Road | | Change Station

Elev 49 ft 17.78 °S, 177.43 °E | Updated 6 seconds ago

Klart
Klart
72.1 °F
Feels Like 72.1 °F
N
0.0
Vind Växlande Vind from Sydlig
Gusts 0.0 miles/tim

Idag
High -- | Low -- °F
--% Chance of Precip.
Yesterday
High -- | Low -- °F
Precip. -- tum
Lufttryck 29.92 tum
Sikt 6.2 miles
Molnigt Few 3000 ft
Daggpunkt 70 °F
Luftfuktighet 92%
Rainfall 0.00 tum
Snow Depth Not available.
6:41 AM 5:45 PM
Första kvarteret, 3% visible
METAR NFFN 251200Z 11006KT 9999 FEW030 23/21 Q1013 NOSIG
Lufttryck 29.92 tum
Sikt 6.2 miles
Molnigt Few 3000 ft
Daggpunkt 70 °F
Luftfuktighet 92%
Rainfall 0.00 tum
Snow Depth Not available.
6:41 AM 5:45 PM
Första kvarteret, 3% visible
METAR NFFN 251200Z 11006KT 9999 FEW030 23/21 Q1013 NOSIG

Get Severe Weather Alerts

Thanks for signing up!

Be on the lookout for a verification email in your inbox.

You'll start receiving the daily forecast at 6 AM.

×

10-Day Weather Forecast

No radar image for this location.
×

Almanac

Astronomi

Jun. 26, 2017 Rise Set
Actual Time
Civil Twilight
Nautical Twilight
Astronomical Twilight
Månen
Length Of Visible Light
Dagens längd
Tomorrow will be .
, % of the Moon is Illuminated

Today's Extremes

Country Highs Country Lows

Community

WunderPhotos

Category 6

Welcome to Category 6. This is the collective home for Weather Underground's featured writeups by Dr. Jeff Masters (right), Bob Henson (left), Chris Burt, and other regular contributors.

Nearby

Air Quality

  Air Quality AQ Index Pollutant
Not available.

Snödjup

Station Depth Elevation

Earthquake Activity

Stad Distance Mag. Time & Date
Minimum magnitude displayed is 2.5.

Coastal Water Temperatures

Plats Temperatur

Stations

Nearby Weather Stations

Station Location Temp Vindavkylning Daggpunkt Luftfuktighet Vind Precip. Elev Uppdaterad Type